Time;durP1;ratioP1;P1;durP2;ratioP2;P2;SDS_P1;SDS_P2;PMS_P1;PMS_P2;Temp;Humidity;BMP_temperature;BMP_pressure;BME280_temperature;BME280_humidity;BME280_pressure;Samples;Min_cycle;Max_cycle;Signal;HPM_P1;HPM_P2
2022/10/29 00:01:44;;;;;;;3.40;2.55;;;17.40;65.60;;;;;;5083185;28;20044;-70
2022/10/29 00:04:10;;;;;;;3.17;2.20;;;17.40;65.60;;;;;;5083167;28;20028;-69
2022/10/29 00:06:36;;;;;;;3.10;2.60;;;17.40;65.50;;;;;;5083149;28;20080;-70
2022/10/29 00:09:03;;;;;;;2.83;2.25;;;17.40;65.60;;;;;;5083132;28;20330;-69
2022/10/29 00:11:29;;;;;;;3.28;2.55;;;17.40;65.60;;;;;;5083065;28;20024;-69
2022/10/29 00:13:58;;;;;;;2.75;2.17;;;17.40;65.60;;;;;;5083091;28;20016;-69
2022/10/29 00:16:26;;;;;;;2.45;2.25;;;17.40;65.60;;;;;;5083060;28;20021;-69
2022/10/29 00:18:54;;;;;;;2.92;2.20;;;17.40;65.60;;;;;;5083079;28;20031;-70
2022/10/29 00:21:23;;;;;;;3.75;2.58;;;17.30;65.50;;;;;;5082830;28;20287;-69
2022/10/29 00:23:49;;;;;;;2.72;2.40;;;17.30;65.50;;;;;;5083048;28;20020;-69
2022/10/29 00:26:17;;;;;;;2.88;2.55;;;17.30;65.50;;;;;;5083023;28;20129;-69
2022/10/29 00:28:42;;;;;;;2.75;2.20;;;17.40;65.50;;;;;;5082948;28;20177;-69
2022/10/29 00:31:14;;;;;;;2.80;2.50;;;17.40;65.60;;;;;;5082866;28;20062;-69
2022/10/29 00:33:40;;;;;;;2.42;2.17;;;17.40;65.50;;;;;;5082900;28;20025;-69
2022/10/29 00:36:10;;;;;;;3.47;2.50;;;17.30;65.50;;;;;;5082881;28;20024;-69
2022/10/29 00:38:35;;;;;;;3.97;2.40;;;17.30;65.50;;;;;;5082853;28;20358;-70
2022/10/29 00:41:03;;;;;;;2.85;2.45;;;17.40;65.50;;;;;;5082837;28;20083;-69
2022/10/29 00:43:32;;;;;;;3.90;2.97;;;17.30;66.10;;;;;;5082834;28;20016;-70
2022/10/29 00:46:02;;;;;;;3.97;2.63;;;17.40;65.60;;;;;;5082776;28;20229;-70
2022/10/29 00:48:32;;;;;;;3.15;2.85;;;17.30;65.50;;;;;;5086415;28;20016;-69
2022/10/29 00:51:01;;;;;;;3.85;2.70;;;17.40;65.50;;;;;;5086267;28;20013;-70
2022/10/29 00:53:31;;;;;;;2.72;2.47;;;17.30;65.50;;;;;;5086290;28;20036;-70
2022/10/29 00:55:58;;;;;;;3.20;2.50;;;17.40;65.60;;;;;;5086565;28;20083;-69
2022/10/29 00:58:24;;;;;;;3.33;2.25;;;17.40;65.50;;;;;;5086167;28;20040;-69
2022/10/29 01:00:50;;;;;;;3.25;2.63;;;17.30;65.50;;;;;;5086166;28;20211;-69
2022/10/29 01:03:15;;;;;;;2.60;2.33;;;17.40;65.50;;;;;;5084922;28;20035;-69
2022/10/29 01:05:42;;;;;;;2.60;2.35;;;17.40;65.50;;;;;;5086030;28;20032;-70
2022/10/29 01:08:09;;;;;;;2.88;2.58;;;17.30;65.50;;;;;;5086020;28;20016;-70
2022/10/29 01:10:39;;;;;;;3.45;2.67;;;17.30;65.50;;;;;;5085927;28;20021;-69
2022/10/29 01:13:33;;;;;;;2.85;2.30;;;17.30;65.40;;;;;;5084741;28;20243;-69
2022/10/29 01:16:25;;;;;;;4.97;2.50;;;17.30;65.50;;;;;;5085929;28;20118;-70
2022/10/29 01:19:15;;;;;;;2.50;2.28;;;17.30;65.50;;;;;;5075027;28;20033;-69
2022/10/29 01:21:59;;;;;;;3.10;2.42;;;17.30;65.50;;;;;;5085599;28;20048;-70
2022/10/29 01:24:44;;;;;;;2.83;2.50;;;17.30;65.50;;;;;;5085746;28;20031;-69
2022/10/29 01:27:38;;;;;;;2.72;2.42;;;17.30;65.50;;;;;;5085690;28;20020;-70
2022/10/29 01:30:17;;;;;;;3.03;2.60;;;17.30;65.50;;;;;;5084687;28;20040;-69
2022/10/29 01:32:58;;;;;;;3.65;2.80;;;17.30;65.50;;;;;;5085586;28;20471;-70
2022/10/29 01:35:29;;;;;;;3.80;2.72;;;17.30;65.50;;;;;;5085518;28;20024;-69
2022/10/29 01:38:16;;;;;;;3.38;2.40;;;17.30;65.50;;;;;;5085501;28;20022;-70
2022/10/29 01:41:02;;;;;;;3.60;2.70;;;17.30;65.50;;;;;;5084255;28;20095;-69
2022/10/29 01:43:37;;;;;;;3.15;2.70;;;17.30;65.50;;;;;;5084947;28;20077;-69
2022/10/29 01:46:16;;;;;;;2.75;2.45;;;17.30;65.50;;;;;;5085329;28;20083;-69
2022/10/29 01:48:46;;;;;;;2.88;2.42;;;17.30;65.50;;;;;;5085297;28;20024;-69
2022/10/29 01:51:22;;;;;;;3.47;2.55;;;17.30;65.50;;;;;;5085160;28;20017;-69
2022/10/29 01:53:49;;;;;;;3.05;2.53;;;17.30;65.50;;;;;;5085136;28;20359;-70
2022/10/29 01:56:15;;;;;;;3.47;2.72;;;17.30;65.50;;;;;;5085065;28;20016;-70
2022/10/29 01:58:45;;;;;;;3.08;2.75;;;17.30;65.50;;;;;;5084558;28;20027;-70
2022/10/29 02:01:23;;;;;;;4.35;2.47;;;17.30;65.50;;;;;;5084997;28;20070;-69
2022/10/29 02:04:28;;;;;;;3.33;2.37;;;17.30;65.50;;;;;;5084945;28;20020;-69
2022/10/29 02:07:13;;;;;;;2.50;2.15;;;17.30;65.50;;;;;;5084869;28;20062;-69
2022/10/29 02:09:54;;;;;;;2.72;2.30;;;17.30;65.60;;;;;;5084843;28;20020;-70
2022/10/29 02:12:33;;;;;;;3.30;2.35;;;17.30;65.60;;;;;;5084703;28;20079;-69
2022/10/29 02:15:27;;;;;;;2.42;2.17;;;17.30;65.50;;;;;;5084772;28;20163;-70
2022/10/29 02:17:58;;;;;;;2.33;2.03;;;17.30;65.50;;;;;;5084712;28;20024;-69
2022/10/29 02:20:24;;;;;;;2.95;2.42;;;17.30;65.50;;;;;;5084646;28;20024;-69
2022/10/29 02:22:50;;;;;;;2.83;2.38;;;17.30;65.50;;;;;;5084401;28;20070;-69
2022/10/29 02:25:16;;;;;;;2.40;2.13;;;17.30;65.50;;;;;;5084520;28;20031;-69
2022/10/29 02:27:41;;;;;;;3.33;2.63;;;17.30;65.50;;;;;;5084456;28;20020;-69
2022/10/29 02:30:08;;;;;;;3.28;2.60;;;17.30;65.50;;;;;;5084317;28;20024;-70
2022/10/29 02:32:33;;;;;;;3.15;2.55;;;17.30;65.50;;;;;;5084353;28;20042;-70
2022/10/29 02:35:00;;;;;;;2.63;2.17;;;17.30;65.50;;;;;;5084297;28;20025;-70
2022/10/29 02:37:26;;;;;;;2.38;2.17;;;17.30;65.50;;;;;;5084266;28;20076;-70
2022/10/29 02:39:51;;;;;;;3.58;2.30;;;17.30;65.50;;;;;;5084202;28;20021;-70
2022/10/29 02:42:17;;;;;;;3.03;2.58;;;17.30;65.60;;;;;;5084152;28;20126;-70
2022/10/29 02:44:43;;;;;;;2.28;2.08;;;17.30;65.60;;;;;;5084151;28;20083;-69
2022/10/29 02:47:09;;;;;;;2.97;2.42;;;17.30;65.50;;;;;;5084091;28;20024;-69
2022/10/29 02:49:34;;;;;;;3.15;2.65;;;17.30;65.50;;;;;;5084054;28;20083;-70
2022/10/29 02:52:00;;;;;;;4.15;2.75;;;17.30;65.50;;;;;;5083915;28;20021;-69
2022/10/29 02:54:26;;;;;;;3.50;2.65;;;17.30;65.50;;;;;;5083953;28;20079;-69
2022/10/29 02:56:52;;;;;;;2.63;2.15;;;17.30;65.50;;;;;;5083903;28;20016;-70
2022/10/29 02:59:17;;;;;;;2.67;2.15;;;17.30;65.50;;;;;;5083891;28;20051;-69
2022/10/29 03:01:43;;;;;;;3.00;2.42;;;17.30;65.50;;;;;;5083868;28;20020;-69
2022/10/29 03:04:10;;;;;;;2.97;2.20;;;17.30;65.50;;;;;;5083776;28;20024;-69
2022/10/29 03:06:36;;;;;;;3.40;2.58;;;17.30;65.50;;;;;;5083815;28;20034;-69
2022/10/29 03:09:03;;;;;;;2.63;2.20;;;17.30;65.50;;;;;;5083010;28;20080;-69
2022/10/29 03:11:29;;;;;;;2.83;2.53;;;17.30;65.50;;;;;;5083697;28;20020;-69
2022/10/29 03:13:54;;;;;;;3.35;2.08;;;17.30;65.50;;;;;;5083724;28;20055;-69
2022/10/29 03:16:20;;;;;;;3.30;2.42;;;17.30;65.50;;;;;;5083688;28;20016;-69
2022/10/29 03:18:46;;;;;;;4.68;2.30;;;17.30;65.50;;;;;;5083656;28;20304;-69
2022/10/29 03:21:12;;;;;;;2.47;2.25;;;17.30;65.50;;;;;;5083450;28;20060;-69
2022/10/29 03:23:38;;;;;;;2.17;2.00;;;17.30;65.50;;;;;;5083665;28;20346;-69
2022/10/29 03:26:03;;;;;;;2.70;2.40;;;17.30;65.50;;;;;;5083562;28;20315;-69
2022/10/29 03:28:29;;;;;;;3.60;2.55;;;17.30;65.50;;;;;;5083534;28;20212;-69
2022/10/29 03:30:58;;;;;;;3.75;2.78;;;17.30;65.50;;;;;;5082299;28;20020;-69
2022/10/29 03:33:25;;;;;;;3.28;2.80;;;17.30;65.50;;;;;;5083482;28;20058;-70
2022/10/29 03:36:02;;;;;;;5.47;2.10;;;17.30;65.50;;;;;;5083476;28;20020;-70
2022/10/29 03:38:28;;;;;;;2.95;2.45;;;17.30;65.60;;;;;;5083425;28;20316;-69
2022/10/29 03:40:54;;;;;;;3.33;2.70;;;17.30;65.50;;;;;;5083451;28;20024;-70
2022/10/29 03:43:21;;;;;;;3.10;2.47;;;17.30;65.60;;;;;;5083446;28;20021;-69
2022/10/29 03:45:54;;;;;;;3.03;2.28;;;17.30;65.60;;;;;;5083356;28;20017;-69
2022/10/29 03:48:21;;;;;;;3.10;2.10;;;17.30;65.60;;;;;;5083390;28;20304;-69
2022/10/29 03:50:55;;;;;;;3.33;2.67;;;17.30;65.60;;;;;;5083284;28;20024;-69
2022/10/29 03:53:21;;;;;;;2.55;2.33;;;17.30;65.50;;;;;;5083312;28;20079;-69
2022/10/29 03:55:52;;;;;;;3.70;2.03;;;17.30;65.50;;;;;;5083274;28;20021;-70
2022/10/29 03:58:18;;;;;;;2.22;2.00;;;17.30;65.60;;;;;;5083336;28;20243;-69
2022/10/29 04:00:51;;;;;;;3.10;2.40;;;17.30;65.50;;;;;;5083234;28;20020;-69
2022/10/29 04:03:17;;;;;;;2.50;2.30;;;17.30;65.50;;;;;;5083234;28;20255;-69
2022/10/29 04:05:43;;;;;;;3.05;2.22;;;17.30;65.50;;;;;;5083175;28;20024;-69
2022/10/29 04:08:08;;;;;;;3.05;2.15;;;17.30;65.50;;;;;;5083137;28;20016;-69
2022/10/29 04:10:34;;;;;;;2.70;2.22;;;17.30;65.50;;;;;;5083115;28;20312;-69
2022/10/29 04:13:00;;;;;;;2.13;1.92;;;17.30;65.50;;;;;;5083151;28;20024;-69
2022/10/29 04:15:26;;;;;;;2.70;2.00;;;17.30;65.50;;;;;;5083099;28;20046;-70
2022/10/29 04:17:51;;;;;;;3.15;2.33;;;17.30;65.50;;;;;;5083061;28;20241;-70
2022/10/29 04:20:17;;;;;;;3.38;2.55;;;17.30;65.50;;;;;;5083553;28;20044;-69
2022/10/29 04:22:43;;;;;;;2.92;2.20;;;17.30;65.50;;;;;;5086737;28;20078;-69
2022/10/29 04:25:09;;;;;;;2.20;2.00;;;17.30;65.50;;;;;;5086821;28;20084;-70
2022/10/29 04:27:35;;;;;;;3.78;2.67;;;17.30;65.50;;;;;;5086786;28;20013;-69
2022/10/29 04:30:01;;;;;;;3.70;2.10;;;17.30;65.50;;;;;;5086721;28;20020;-70
2022/10/29 04:32:27;;;;;;;2.65;2.28;;;17.30;65.50;;;;;;5086622;28;20012;-69
2022/10/29 04:34:53;;;;;;;2.95;1.98;;;17.20;65.40;;;;;;5086602;28;20016;-69
2022/10/29 04:37:19;;;;;;;2.65;2.05;;;17.30;65.50;;;;;;5086565;28;20203;-69
2022/10/29 04:39:44;;;;;;;3.10;2.22;;;17.20;65.50;;;;;;5086574;28;20021;-69
2022/10/29 04:42:10;;;;;;;2.65;2.40;;;17.30;65.50;;;;;;5086470;28;20016;-70
2022/10/29 04:44:36;;;;;;;2.85;2.30;;;17.30;66.20;;;;;;5086422;28;20032;-70
2022/10/29 04:47:02;;;;;;;3.00;2.38;;;17.20;65.50;;;;;;5086414;28;20043;-70
2022/10/29 04:49:28;;;;;;;3.90;2.28;;;17.20;65.50;;;;;;5086377;28;20024;-70
2022/10/29 04:51:53;;;;;;;2.47;2.13;;;17.20;65.60;;;;;;5086233;28;20048;-70
2022/10/29 04:54:19;;;;;;;3.25;2.72;;;17.30;65.60;;;;;;5086262;28;20027;-70
2022/10/29 04:56:45;;;;;;;3.05;2.03;;;17.20;65.50;;;;;;5086250;28;20058;-70
2022/10/29 04:59:11;;;;;;;3.13;2.47;;;17.30;65.60;;;;;;5086208;28;20036;-69
2022/10/29 05:01:37;;;;;;;2.28;1.95;;;17.20;65.50;;;;;;5084977;28;20032;-70
2022/10/29 05:04:02;;;;;;;2.45;2.03;;;17.30;65.60;;;;;;5084952;28;20118;-69
2022/10/29 05:06:28;;;;;;;2.58;2.00;;;17.20;65.50;;;;;;5086045;28;20023;-70
2022/10/29 05:08:54;;;;;;;3.80;2.67;;;17.20;65.50;;;;;;5086024;28;20020;-69
2022/10/29 05:11:20;;;;;;;3.05;2.63;;;17.20;65.50;;;;;;5085885;28;20020;-69
2022/10/29 05:13:45;;;;;;;2.60;2.00;;;17.20;65.50;;;;;;5085938;28;20024;-70
2022/10/29 05:16:11;;;;;;;3.17;2.78;;;17.20;65.50;;;;;;5085891;28;20016;-69
2022/10/29 05:18:38;;;;;;;2.78;2.25;;;17.20;65.50;;;;;;5085846;28;20020;-69
2022/10/29 05:21:04;;;;;;;2.60;1.90;;;17.30;65.50;;;;;;5085654;28;20040;-69
2022/10/29 05:23:30;;;;;;;2.60;2.40;;;17.30;65.50;;;;;;5085809;28;20241;-69
2022/10/29 05:25:55;;;;;;;3.30;2.40;;;17.20;65.40;;;;;;5085695;28;20025;-69
2022/10/29 05:28:22;;;;;;;3.03;2.22;;;17.20;65.50;;;;;;5085625;28;20080;-69
2022/10/29 05:30:50;;;;;;;2.50;2.00;;;17.20;65.50;;;;;;5085531;28;20084;-70
2022/10/29 05:33:21;;;;;;;2.80;2.42;;;17.20;65.40;;;;;;5084752;28;20027;-70
2022/10/29 05:35:47;;;;;;;2.50;1.88;;;17.20;65.50;;;;;;5085577;28;20019;-70
2022/10/29 05:38:14;;;;;;;3.35;2.60;;;17.30;65.50;;;;;;5085479;28;20080;-70
2022/10/29 05:40:41;;;;;;;3.05;2.20;;;17.20;65.40;;;;;;5085428;28;20017;-69
2022/10/29 05:43:07;;;;;;;3.38;2.45;;;17.20;65.50;;;;;;5085392;28;20013;-69
2022/10/29 05:45:33;;;;;;;2.67;2.13;;;17.20;65.50;;;;;;5085313;28;20096;-70
2022/10/29 05:48:01;;;;;;;3.10;1.88;;;17.20;65.40;;;;;;5085282;28;20308;-69
2022/10/29 05:50:28;;;;;;;2.95;2.25;;;17.20;65.50;;;;;;5085198;28;20321;-70
2022/10/29 05:53:02;;;;;;;2.40;2.15;;;17.20;65.40;;;;;;5085180;28;20020;-70
2022/10/29 05:55:31;;;;;;;3.67;2.65;;;17.30;65.50;;;;;;5085138;28;20013;-69
2022/10/29 05:57:58;;;;;;;2.80;2.47;;;17.30;65.50;;;;;;5085129;28;20028;-69
2022/10/29 06:00:26;;;;;;;3.00;1.95;;;17.20;65.50;;;;;;5085064;28;20219;-70
2022/10/29 06:02:51;;;;;;;2.25;1.80;;;17.20;65.50;;;;;;5085019;28;20008;-69
2022/10/29 06:05:17;;;;;;;3.08;2.25;;;17.20;65.50;;;;;;5084978;28;20017;-69
2022/10/29 06:07:43;;;;;;;2.78;1.90;;;17.20;65.40;;;;;;5084866;28;20013;-70
2022/10/29 06:10:09;;;;;;;3.28;2.40;;;17.20;65.40;;;;;;5084751;28;20039;-69
2022/10/29 06:12:35;;;;;;;2.40;2.20;;;17.20;65.40;;;;;;5084792;28;20253;-69
2022/10/29 06:15:00;;;;;;;2.28;2.03;;;17.20;65.40;;;;;;5084728;28;20030;-69
2022/10/29 06:17:26;;;;;;;3.03;2.72;;;17.20;65.50;;;;;;5084672;28;20028;-69
2022/10/29 06:19:52;;;;;;;3.10;2.50;;;17.20;65.50;;;;;;5084679;28;20072;-69
2022/10/29 06:22:18;;;;;;;2.67;2.42;;;17.20;65.40;;;;;;5084426;28;20044;-70
2022/10/29 06:24:44;;;;;;;2.60;2.22;;;17.20;65.40;;;;;;5084514;28;20324;-70
2022/10/29 06:27:10;;;;;;;2.28;2.08;;;17.20;65.50;;;;;;5084476;28;20257;-70
2022/10/29 06:29:35;;;;;;;2.15;1.95;;;17.20;65.50;;;;;;5084418;28;20031;-69
2022/10/29 06:32:01;;;;;;;3.08;2.03;;;17.20;65.40;;;;;;5084368;28;20084;-69
2022/10/29 06:34:27;;;;;;;2.85;2.50;;;17.20;65.50;;;;;;5084372;28;20028;-70
2022/10/29 06:36:54;;;;;;;2.97;2.45;;;17.20;66.00;;;;;;5083443;28;20192;-69
2022/10/29 06:39:20;;;;;;;2.70;2.35;;;17.20;66.10;;;;;;5084221;28;20031;-70
2022/10/29 06:41:46;;;;;;;2.83;2.20;;;17.20;65.40;;;;;;5084202;28;20020;-69
2022/10/29 06:44:11;;;;;;;2.78;1.92;;;17.20;65.40;;;;;;5084141;28;20292;-69
2022/10/29 06:46:38;;;;;;;2.72;2.30;;;17.20;65.40;;;;;;5084105;28;20028;-69
2022/10/29 06:49:04;;;;;;;2.40;2.20;;;17.20;65.40;;;;;;5084087;28;20032;-69
2022/10/29 06:51:29;;;;;;;2.20;1.98;;;17.20;65.40;;;;;;5083955;28;20079;-69
2022/10/29 06:53:55;;;;;;;2.15;1.95;;;17.20;65.50;;;;;;5084000;28;20027;-69
2022/10/29 06:56:21;;;;;;;2.50;2.20;;;17.20;65.40;;;;;;5083995;28;20017;-69
2022/10/29 06:58:47;;;;;;;3.35;2.40;;;17.20;65.40;;;;;;5083928;28;20024;-69
2022/10/29 07:01:13;;;;;;;3.33;2.38;;;17.20;65.40;;;;;;5083895;28;20326;-70
2022/10/29 07:03:38;;;;;;;2.58;2.35;;;17.20;65.40;;;;;;5083823;28;20216;-69
2022/10/29 07:06:04;;;;;;;2.67;2.15;;;17.20;65.40;;;;;;5083847;28;20031;-69
2022/10/29 07:08:32;;;;;;;2.58;2.30;;;17.20;65.40;;;;;;5083795;28;20044;-69
2022/10/29 07:10:57;;;;;;;3.53;2.33;;;17.20;65.40;;;;;;5083698;28;20279;-70
2022/10/29 07:13:23;;;;;;;3.00;2.53;;;17.20;65.40;;;;;;5083741;28;20031;-70
2022/10/29 07:15:49;;;;;;;2.25;2.05;;;17.20;65.30;;;;;;5083318;28;20307;-69
2022/10/29 07:18:15;;;;;;;3.00;2.35;;;17.20;65.30;;;;;;5083673;28;20413;-69
2022/10/29 07:20:44;;;;;;;2.78;2.45;;;17.30;65.30;;;;;;5083656;28;20130;-69
2022/10/29 07:23:11;;;;;;;2.75;2.28;;;17.20;65.30;;;;;;5082295;28;20082;-69
2022/10/29 07:25:39;;;;;;;;;;;17.30;65.30;;;;;;5084250;28;20048;-69
2022/10/29 07:28:11;;;;;;;2.38;1.90;;;17.20;65.30;;;;;;5083578;28;19912;-69
2022/10/29 07:30:38;;;;;;;3.20;2.40;;;17.30;65.30;;;;;;5083514;28;20020;-69
2022/10/29 07:33:03;;;;;;;4.65;2.60;;;17.30;65.30;;;;;;5083525;28;20021;-69
2022/10/29 07:35:29;;;;;;;3.25;2.65;;;17.30;65.30;;;;;;5083477;28;20072;-70
2022/10/29 07:38:03;;;;;;;3.45;1.95;;;17.30;65.30;;;;;;5083466;28;20254;-70
2022/10/29 07:40:29;;;;;;;3.38;2.70;;;17.30;65.30;;;;;;5083475;28;20098;-69
2022/10/29 07:42:55;;;;;;;2.70;2.35;;;17.30;65.30;;;;;;5083436;28;20020;-69
2022/10/29 07:45:21;;;;;;;2.83;2.30;;;17.30;65.30;;;;;;5083382;28;20050;-69
2022/10/29 07:47:46;;;;;;;3.58;2.60;;;17.30;65.30;;;;;;5083356;28;20020;-69
2022/10/29 07:50:12;;;;;;;2.03;1.77;;;17.30;65.30;;;;;;5083285;28;20080;-69
2022/10/29 07:52:39;;;;;;;3.03;2.33;;;17.30;65.30;;;;;;5083360;28;20195;-69
2022/10/29 07:55:06;;;;;;;3.05;2.50;;;17.30;65.30;;;;;;5083534;28;20204;-69
2022/10/29 07:57:33;;;;;;;2.60;2.33;;;17.30;65.30;;;;;;5087425;28;20012;-69
2022/10/29 07:59:58;;;;;;;2.83;2.33;;;17.30;65.30;;;;;;5087371;28;20042;-69
2022/10/29 08:02:24;;;;;;;2.08;1.90;;;17.30;65.30;;;;;;5087318;28;20324;-69
2022/10/29 08:04:50;;;;;;;2.50;2.13;;;17.30;65.30;;;;;;5087258;28;20040;-69
2022/10/29 08:07:16;;;;;;;2.72;2.33;;;17.30;65.30;;;;;;5087246;28;20306;-70
2022/10/29 08:09:41;;;;;;;2.58;2.33;;;17.30;65.30;;;;;;5087126;28;20027;-69
2022/10/29 08:12:09;;;;;;;3.10;2.30;;;17.20;65.20;;;;;;5087079;28;20316;-70
2022/10/29 08:14:35;;;;;;;2.55;2.20;;;17.30;65.30;;;;;;5087083;28;20016;-70
2022/10/29 08:17:01;;;;;;;2.95;2.65;;;17.30;65.30;;;;;;5087018;28;20027;-70
2022/10/29 08:19:28;;;;;;;2.47;1.95;;;17.30;65.30;;;;;;5086967;28;20185;-69
2022/10/29 08:21:55;;;;;;;2.45;1.92;;;17.30;65.30;;;;;;5086777;28;20037;-70
2022/10/29 08:24:21;;;;;;;2.72;2.35;;;17.30;65.30;;;;;;5086889;28;20031;-69
2022/10/29 08:26:48;;;;;;;3.30;2.75;;;17.30;65.30;;;;;;5086837;28;20024;-69
2022/10/29 08:29:14;;;;;;;2.63;2.25;;;17.30;65.20;;;;;;5086763;28;20016;-69
2022/10/29 08:31:40;;;;;;;3.45;2.63;;;17.30;65.20;;;;;;5086644;28;20051;-69
2022/10/29 08:34:05;;;;;;;2.53;2.15;;;17.30;65.20;;;;;;5086655;28;20012;-69
2022/10/29 08:36:31;;;;;;;2.63;2.20;;;17.30;65.10;;;;;;5086624;28;20025;-69
2022/10/29 08:38:57;;;;;;;2.60;2.20;;;17.30;65.20;;;;;;5086559;28;20036;-69
2022/10/29 08:41:50;;;;;;;2.85;2.08;;;17.30;65.20;;;;;;5086562;28;20107;-69
2022/10/29 08:44:19;;;;;;;2.85;2.45;;;17.30;65.20;;;;;;5086491;28;20023;-70
2022/10/29 08:47:00;;;;;;;3.67;2.80;;;17.30;65.20;;;;;;5086436;28;20021;-69
2022/10/29 08:49:43;;;;;;;2.08;1.88;;;17.30;65.20;;;;;;5086409;28;20204;-69
2022/10/29 08:52:32;;;;;;;2.50;2.20;;;17.30;65.20;;;;;;5086242;28;20028;-69
2022/10/29 08:55:15;;;;;;;3.10;2.20;;;17.30;65.20;;;;;;5085866;28;20024;-69
2022/10/29 08:57:46;;;;;;;2.42;2.00;;;17.30;65.20;;;;;;5086279;28;20305;-69
2022/10/29 09:00:15;;;;;;;2.42;2.10;;;17.30;65.10;;;;;;5086252;28;20020;-69
2022/10/29 09:02:40;;;;;;;;;;;17.30;65.20;;;;;;5086590;28;20017;-69
2022/10/29 09:05:16;;;;;;;2.58;2.28;;;17.30;65.10;;;;;;5086158;28;19908;-70
2022/10/29 09:07:57;;;;;;;2.65;2.45;;;17.30;65.20;;;;;;5084863;28;20201;-69
2022/10/29 09:10:32;;;;;;;3.20;2.20;;;17.30;65.20;;;;;;5086018;28;20066;-69
2022/10/29 09:13:20;;;;;;;2.90;2.50;;;17.30;65.10;;;;;;5086002;28;20171;-69
2022/10/29 09:16:17;;;;;;;3.67;2.67;;;17.30;65.10;;;;;;5085996;28;20021;-69
2022/10/29 09:18:52;;;;;;;3.13;2.60;;;17.30;65.10;;;;;;5085919;28;20023;-69
2022/10/29 09:21:38;;;;;;;3.10;2.47;;;17.30;65.10;;;;;;5085664;28;20059;-69
2022/10/29 09:24:48;;;;;;;3.30;2.50;;;17.30;65.20;;;;;;5085760;28;20020;-70
2022/10/29 09:27:22;;;;;;;3.17;2.17;;;17.30;65.20;;;;;;5078989;28;20028;-69
2022/10/29 09:30:07;;;;;;;2.92;2.38;;;17.30;65.20;;;;;;5085705;28;20020;-69
2022/10/29 09:32:56;;;;;;;2.53;2.05;;;17.30;65.10;;;;;;5085598;28;20070;-69
2022/10/29 09:35:40;;;;;;;2.40;2.20;;;17.30;65.10;;;;;;5084814;28;20032;-70
2022/10/29 09:38:19;;;;;;;3.03;2.47;;;17.30;65.10;;;;;;5085564;28;20027;-69
2022/10/29 09:40:45;;;;;;;2.42;1.90;;;17.30;65.10;;;;;;5085535;28;20353;-70
2022/10/29 09:43:30;;;;;;;3.97;2.80;;;17.30;65.10;;;;;;5085413;28;20055;-69
2022/10/29 09:45:59;;;;;;;2.72;2.42;;;17.30;65.10;;;;;;5085417;28;20020;-69
2022/10/29 09:48:55;;;;;;;3.03;2.45;;;17.30;65.10;;;;;;5085364;28;20053;-70
2022/10/29 09:51:21;;;;;;;3.45;2.47;;;17.30;65.10;;;;;;5085204;28;20188;-70
2022/10/29 09:53:48;;;;;;;2.10;1.90;;;17.30;65.10;;;;;;5085198;28;20334;-69
2022/10/29 09:56:14;;;;;;;3.17;2.45;;;17.30;65.10;;;;;;5085160;28;20027;-69
2022/10/29 09:58:45;;;;;;;2.50;2.17;;;17.30;65.10;;;;;;5085100;28;20016;-70
2022/10/29 10:01:11;;;;;;;2.92;2.30;;;17.30;65.10;;;;;;5085105;28;20212;-70
2022/10/29 10:03:44;;;;;;;2.92;2.63;;;17.30;65.20;;;;;;5085045;28;20075;-69
2022/10/29 10:06:12;;;;;;;2.95;2.60;;;17.30;65.20;;;;;;5085006;28;20028;-69
2022/10/29 10:09:10;;;;;;;3.13;2.40;;;17.30;65.10;;;;;;5084942;28;20020;-69
2022/10/29 10:11:51;;;;;;;2.38;2.10;;;17.30;65.10;;;;;;5051125;28;20036;-69
2022/10/29 10:14:21;;;;;;;2.17;1.98;;;17.30;65.10;;;;;;5084873;28;20056;-69
2022/10/29 10:16:58;;;;;;;3.65;2.33;;;17.30;65.20;;;;;;5084779;28;20025;-70
2022/10/29 10:19:26;;;;;;;2.92;2.25;;;17.30;65.20;;;;;;5083264;28;20260;-70
2022/10/29 10:22:00;;;;;;;3.60;2.70;;;17.30;65.20;;;;;;5083357;28;20048;-70
2022/10/29 10:24:37;;;;;;;3.53;2.75;;;17.30;65.20;;;;;;5084607;28;20021;-71
2022/10/29 10:27:29;;;;;;;2.90;2.13;;;17.30;65.10;;;;;;5084584;28;20239;-70
2022/10/29 10:30:14;;;;;;;2.80;2.45;;;17.30;65.10;;;;;;5077891;28;20024;-70
2022/10/29 10:32:40;;;;;;;3.00;2.60;;;17.30;65.20;;;;;;5084432;28;20008;-69
2022/10/29 10:35:26;;;;;;;3.65;2.65;;;17.30;65.30;;;;;;5084426;28;20062;-70
2022/10/29 10:37:52;;;;;;;3.17;2.30;;;17.30;65.90;;;;;;5084352;28;20009;-69
2022/10/29 10:40:23;;;;;;;3.45;2.60;;;17.30;65.30;;;;;;5083124;28;20219;-69
2022/10/29 10:42:52;;;;;;;2.65;2.45;;;17.30;65.20;;;;;;5084241;28;20017;-70
2022/10/29 10:45:34;;;;;;;3.17;2.25;;;17.30;65.30;;;;;;5084203;28;20016;-69
2022/10/29 10:48:00;;;;;;;2.72;2.25;;;17.30;65.20;;;;;;5084143;28;20027;-69
2022/10/29 10:50:32;;;;;;;3.10;2.50;;;17.30;65.10;;;;;;5084036;28;20070;-70
2022/10/29 10:53:01;;;;;;;3.15;2.42;;;17.30;65.20;;;;;;5084055;28;20212;-70
2022/10/29 10:55:34;;;;;;;2.70;2.38;;;17.30;65.20;;;;;;5084024;28;20083;-70
2022/10/29 10:58:24;;;;;;;2.83;2.40;;;17.30;65.30;;;;;;5083989;28;20008;-69
2022/10/29 11:01:05;;;;;;;3.53;2.67;;;17.30;65.30;;;;;;5083951;28;20070;-69
2022/10/29 11:03:57;;;;;;;4.15;2.67;;;17.30;65.10;;;;;;5083893;28;20058;-69
2022/10/29 11:06:39;;;;;;;3.72;2.53;;;17.30;65.10;;;;;;5083847;28;20074;-70
2022/10/29 11:09:17;;;;;;;2.42;2.22;;;17.30;65.30;;;;;;5083860;28;20020;-69
2022/10/29 11:11:56;;;;;;;3.22;2.47;;;17.30;65.50;;;;;;5083751;28;20024;-70
2022/10/29 11:14:57;;;;;;;2.22;1.98;;;17.30;65.30;;;;;;5083798;28;20315;-69
2022/10/29 11:17:32;;;;;;;3.13;2.50;;;17.30;65.20;;;;;;5080955;28;20063;-69
2022/10/29 11:20:17;;;;;;;3.33;2.50;;;17.30;65.10;;;;;;5082590;28;20019;-69
2022/10/29 11:23:20;;;;;;;3.17;2.55;;;17.30;65.10;;;;;;5083544;28;20075;-70
2022/10/29 11:26:13;;;;;;;2.65;2.33;;;17.30;65.20;;;;;;5083668;28;20031;-70
2022/10/29 11:28:56;;;;;;;2.78;2.42;;;17.20;65.40;;;;;;5083136;28;20029;-69
2022/10/29 11:31:28;;;;;;;3.03;2.63;;;17.30;65.40;;;;;;5082800;28;20083;-70
2022/10/29 11:34:38;;;;;;;2.40;2.15;;;17.30;65.50;;;;;;5083548;28;20013;-69
2022/10/29 11:37:22;;;;;;;2.33;2.13;;;17.30;65.40;;;;;;5083602;28;20020;-69
2022/10/29 11:39:55;;;;;;;2.67;2.38;;;17.30;65.40;;;;;;5083517;28;20039;-70
2022/10/29 11:42:21;;;;;;;3.03;2.60;;;17.30;65.30;;;;;;5083495;28;20024;-69
2022/10/29 11:44:47;;;;;;;2.75;2.40;;;17.30;65.20;;;;;;5083436;28;20024;-70
2022/10/29 11:47:53;;;;;;;3.03;2.08;;;17.30;65.20;;;;;;5083410;28;20079;-70
2022/10/29 11:50:46;;;;;;;3.85;3.08;;;17.30;65.20;;;;;;5083336;28;20025;-70
2022/10/29 11:53:53;;;;;;;3.15;2.60;;;17.30;65.10;;;;;;5083403;28;20012;-69
2022/10/29 11:56:43;;;;;;;3.15;2.42;;;17.30;65.10;;;;;;5053464;28;20033;-70
2022/10/29 11:59:44;;;;;;;2.85;2.33;;;17.30;65.10;;;;;;5083328;28;20084;-69
2022/10/29 12:02:32;;;;;;;4.15;2.55;;;17.40;65.10;;;;;;5083282;28;20048;-69
2022/10/29 12:05:17;;;;;;;4.13;2.75;;;17.30;65.00;;;;;;5083290;28;20319;-69
2022/10/29 12:08:09;;;;;;;3.13;2.83;;;17.30;65.10;;;;;;5083246;28;20055;-69
2022/10/29 12:10:58;;;;;;;3.22;2.33;;;17.30;65.00;;;;;;5059961;28;20037;-69
2022/10/29 12:13:49;;;;;;;2.63;2.28;;;17.30;65.10;;;;;;5083218;28;20216;-69
2022/10/29 12:16:23;;;;;;;3.55;2.50;;;17.30;65.20;;;;;;5083144;28;20040;-69
2022/10/29 12:18:56;;;;;;;3.33;2.45;;;17.30;65.20;;;;;;5083149;28;20076;-70
2022/10/29 12:21:59;;;;;;;3.50;2.33;;;17.30;65.20;;;;;;5082960;28;20379;-71
2022/10/29 12:24:56;;;;;;;2.53;2.30;;;17.30;65.20;;;;;;5083021;28;20044;-70
2022/10/29 12:27:25;;;;;;;3.45;2.45;;;17.30;65.10;;;;;;5083017;28;20055;-71
2022/10/29 12:30:06;;;;;;;2.70;2.17;;;17.30;65.10;;;;;;5083008;28;20024;-71
2022/10/29 12:33:00;;;;;;;2.67;2.28;;;17.30;65.20;;;;;;5082960;28;20339;-71
2022/10/29 12:35:47;;;;;;;3.10;2.75;;;17.30;65.20;;;;;;5082984;28;20301;-70
2022/10/29 12:38:53;;;;;;;3.85;2.45;;;17.30;65.20;;;;;;5115137;28;20324;-70
2022/10/29 12:41:32;;;;;;;2.83;2.45;;;17.30;65.30;;;;;;5074931;28;20033;-69
2022/10/29 12:44:22;;;;;;;2.63;2.40;;;17.30;65.90;;;;;;5086560;28;20017;-69
2022/10/29 12:47:23;;;;;;;3.17;2.33;;;17.30;65.20;;;;;;5086508;28;20020;-69
2022/10/29 12:50:16;;;;;;;2.20;2.00;;;17.30;65.20;;;;;;5034571;28;20147;-69
2022/10/29 12:53:24;;;;;;;4.57;3.08;;;17.30;65.40;;;;;;5085101;28;20246;-69
2022/10/29 12:55:51;;;;;;;2.97;2.40;;;17.30;65.30;;;;;;5078093;28;20028;-69
2022/10/29 12:58:43;;;;;;;2.42;2.20;;;17.30;65.30;;;;;;5086282;28;20312;-69
2022/10/29 13:01:27;;;;;;;2.88;2.58;;;17.30;65.20;;;;;;5086188;28;20020;-69
2022/10/29 13:03:58;;;;;;;3.10;2.42;;;17.30;65.20;;;;;;5086144;28;20074;-69
2022/10/29 13:06:42;;;;;;;2.30;2.08;;;17.30;65.30;;;;;;5086148;28;20025;-70
2022/10/29 13:09:17;;;;;;;3.13;2.55;;;17.30;65.20;;;;;;5086046;28;20020;-71
2022/10/29 13:11:47;;;;;;;2.88;2.28;;;17.30;65.10;;;;;;5085969;28;20024;-71
2022/10/29 13:14:33;;;;;;;3.53;2.88;;;17.30;65.10;;;;;;5086035;28;20017;-71
2022/10/29 13:17:01;;;;;;;2.80;2.28;;;17.30;65.10;;;;;;5085960;28;20054;-70